createdAt,value
2023-02-06T00:00:21.860Z,0.00
2023-02-06T00:01:22.721Z,0.00
2023-02-06T00:02:23.586Z,0.00
2023-02-06T00:03:24.422Z,0.00
2023-02-06T00:04:25.272Z,0.00
2023-02-06T00:05:26.239Z,0.00
2023-02-06T00:06:27.042Z,0.00
2023-02-06T00:07:28.298Z,0.00
2023-02-06T00:08:28.693Z,0.00
2023-02-06T00:09:29.467Z,0.00
2023-02-06T00:10:30.312Z,0.00
2023-02-06T00:11:31.177Z,0.00
2023-02-06T00:12:32.312Z,0.00
2023-02-06T00:13:32.666Z,0.00
2023-02-06T00:14:33.518Z,0.00
2023-02-06T00:15:34.751Z,0.00
2023-02-06T00:16:35.353Z,0.00
2023-02-06T00:17:36.197Z,0.00
2023-02-06T00:18:37.050Z,0.00
2023-02-06T00:19:37.916Z,0.00
2023-02-06T00:20:38.757Z,0.00
2023-02-06T00:21:39.610Z,0.00
2023-02-06T00:22:40.473Z,0.00
2023-02-06T00:23:41.381Z,0.00
2023-02-06T00:24:42.163Z,0.00
2023-02-06T00:25:43.021Z,0.00
2023-02-06T00:26:43.873Z,0.00
2023-02-06T00:27:44.770Z,0.00
2023-02-06T00:28:45.593Z,0.00
2023-02-06T00:29:46.450Z,0.00
2023-02-06T00:30:47.435Z,0.00
2023-02-06T00:31:48.321Z,0.00
2023-02-06T00:32:49.275Z,0.00
2023-02-06T00:33:50.062Z,0.00
2023-02-06T00:34:50.926Z,0.00
2023-02-06T00:35:51.789Z,0.00
2023-02-06T00:36:52.641Z,0.00
2023-02-06T00:37:53.795Z,0.00
2023-02-06T00:38:54.194Z,0.00
2023-02-06T00:39:54.970Z,0.00
2023-02-06T00:40:55.829Z,0.00
2023-02-06T00:41:56.670Z,0.00
2023-02-06T00:42:57.537Z,0.00
2023-02-06T00:43:58.423Z,0.00
2023-02-06T00:44:59.313Z,0.00
2023-02-06T00:46:00.187Z,0.00
2023-02-06T00:47:01.015Z,0.00
2023-02-06T00:48:01.879Z,0.00
2023-02-06T00:49:02.729Z,0.00
2023-02-06T00:50:03.602Z,0.00
2023-02-06T00:51:04.438Z,0.00
2023-02-06T00:52:05.290Z,0.00
2023-02-06T00:53:06.147Z,0.00
2023-02-06T00:54:07.041Z,0.00
2023-02-06T00:55:07.840Z,0.00
2023-02-06T00:56:08.700Z,0.00
2023-02-06T00:57:09.575Z,0.00
2023-02-06T00:58:10.799Z,0.00
2023-02-06T00:59:11.161Z,0.00
2023-02-06T01:00:12.014Z,0.00
2023-02-06T01:01:12.924Z,0.00
2023-02-06T01:02:13.745Z,0.00
2023-02-06T01:03:14.606Z,0.00
2023-02-06T01:04:15.463Z,0.00
2023-02-06T01:05:16.313Z,0.00
2023-02-06T01:06:17.173Z,0.00
2023-02-06T01:07:18.040Z,0.00
2023-02-06T01:08:19.289Z,0.00
2023-02-06T01:09:19.770Z,0.00
2023-02-06T01:10:20.548Z,0.00
2023-02-06T01:11:21.402Z,0.00
2023-02-06T01:12:22.248Z,0.00
2023-02-06T01:13:23.316Z,0.00
2023-02-06T01:14:23.662Z,0.00
2023-02-06T01:15:24.512Z,0.00
2023-02-06T01:16:25.430Z,0.00
2023-02-06T01:17:26.226Z,0.00
2023-02-06T01:18:27.102Z,0.00
2023-02-06T01:19:27.940Z,0.00
2023-02-06T01:20:28.791Z,0.00
2023-02-06T01:21:29.644Z,0.00
2023-02-06T01:22:30.497Z,0.00
2023-02-06T01:23:31.364Z,0.00
2023-02-06T01:24:32.253Z,0.00
2023-02-06T01:25:33.375Z,0.00
2023-02-06T01:26:33.793Z,0.00
2023-02-06T01:27:34.649Z,0.00
2023-02-06T01:28:35.504Z,0.00
2023-02-06T01:29:36.366Z,0.00
2023-02-06T01:30:37.251Z,0.00
2023-02-06T01:31:38.122Z,0.00
2023-02-06T01:32:38.938Z,0.00
2023-02-06T01:33:40.281Z,0.00
2023-02-06T01:34:40.643Z,0.00
2023-02-06T01:35:41.495Z,0.00
2023-02-06T01:36:42.353Z,0.00
2023-02-06T01:37:43.232Z,0.00
2023-02-06T01:38:44.279Z,0.00
2023-02-06T01:39:44.704Z,0.00
2023-02-06T01:40:45.483Z,0.00
2023-02-06T01:41:46.336Z,0.00
2023-02-06T01:42:47.187Z,0.00
2023-02-06T01:43:48.054Z,0.00
2023-02-06T01:44:48.921Z,0.00
2023-02-06T01:45:49.798Z,0.00
2023-02-06T01:46:50.675Z,0.00
2023-02-06T01:47:51.487Z,0.00
2023-02-06T01:48:52.350Z,0.00
2023-02-06T01:49:53.198Z,0.00
2023-02-06T01:50:54.052Z,0.00
2023-02-06T01:51:54.908Z,0.00
2023-02-06T01:52:55.757Z,0.00
2023-02-06T01:53:56.774Z,0.00
2023-02-06T01:54:57.171Z,0.00
2023-02-06T01:55:57.962Z,0.00
2023-02-06T01:56:58.817Z,0.00
2023-02-06T01:57:59.667Z,0.00
2023-02-06T01:59:00.529Z,0.00
2023-02-06T02:00:01.378Z,0.00
2023-02-06T02:01:02.315Z,0.00
2023-02-06T02:02:03.255Z,0.00
2023-02-06T02:03:04.080Z,0.00
2023-02-06T02:04:04.935Z,0.00
2023-02-06T02:05:05.791Z,0.00
2023-02-06T02:06:06.646Z,0.00
2023-02-06T02:07:07.509Z,0.00
2023-02-06T02:08:08.358Z,0.00
2023-02-06T02:09:09.276Z,0.00
2023-02-06T02:10:10.221Z,0.00
2023-02-06T02:11:11.018Z,0.00
2023-02-06T02:12:11.874Z,0.00
2023-02-06T02:13:12.726Z,0.00
2023-02-06T02:14:13.793Z,0.00
2023-02-06T02:15:14.144Z,0.00
2023-02-06T02:16:15.023Z,0.00
2023-02-06T02:17:15.861Z,0.00
2023-02-06T02:18:16.719Z,0.00
2023-02-06T02:19:17.779Z,0.00
2023-02-06T02:20:18.132Z,0.00
2023-02-06T02:21:18.988Z,0.00
2023-02-06T02:22:19.844Z,0.00
2023-02-06T02:23:20.699Z,0.00
2023-02-06T02:24:21.781Z,0.00
2023-02-06T02:25:22.173Z,0.00
2023-02-06T02:26:22.985Z,0.00
2023-02-06T02:27:23.839Z,0.00
2023-02-06T02:28:24.705Z,0.00
2023-02-06T02:29:25.782Z,0.00
2023-02-06T02:30:26.227Z,0.00
2023-02-06T02:31:27.084Z,0.00
2023-02-06T02:32:27.922Z,0.00
2023-02-06T02:33:28.805Z,0.00
2023-02-06T02:34:29.788Z,0.00
2023-02-06T02:35:30.129Z,0.00
2023-02-06T02:36:30.981Z,0.00
2023-02-06T02:37:31.839Z,0.00
2023-02-06T02:38:32.699Z,0.00
2023-02-06T02:39:33.774Z,0.00
2023-02-06T02:40:34.220Z,0.00
2023-02-06T02:41:35.002Z,0.00
2023-02-06T02:42:35.861Z,0.00
2023-02-06T02:43:36.715Z,0.00
2023-02-06T02:44:37.607Z,0.00
2023-02-06T02:45:38.800Z,0.00
2023-02-06T02:46:39.180Z,0.00
2023-02-06T02:47:40.054Z,0.00
2023-02-06T02:48:40.898Z,0.00
2023-02-06T02:49:42.275Z,0.00
2023-02-06T02:50:42.627Z,0.00
2023-02-06T02:51:43.483Z,0.00
2023-02-06T02:52:44.332Z,0.00
2023-02-06T02:53:45.183Z,0.00
2023-02-06T02:54:46.267Z,0.00
2023-02-06T02:55:46.741Z,0.00
2023-02-06T02:56:47.513Z,0.00
2023-02-06T02:57:48.369Z,0.00
2023-02-06T02:58:49.220Z,0.00
2023-02-06T02:59:50.272Z,0.00
2023-02-06T03:00:50.656Z,0.00
2023-02-06T03:01:51.481Z,0.00
2023-02-06T03:02:52.327Z,0.00
2023-02-06T03:03:53.174Z,0.00
2023-02-06T03:04:54.039Z,0.00
2023-02-06T03:05:54.892Z,0.00
2023-02-06T03:06:55.741Z,0.00
2023-02-06T03:07:56.594Z,0.00
2023-02-06T03:08:57.450Z,0.00
2023-02-06T03:09:58.308Z,0.00
2023-02-06T03:10:59.206Z,0.00
2023-02-06T03:11:59.986Z,0.00
2023-02-06T03:13:00.830Z,0.00
2023-02-06T03:14:01.687Z,0.00
2023-02-06T03:15:02.563Z,0.00
2023-02-06T03:16:03.423Z,0.00
2023-02-06T03:17:04.268Z,0.00
2023-02-06T03:18:05.116Z,0.00
2023-02-06T03:19:05.974Z,0.00
2023-02-06T03:20:06.838Z,0.00
2023-02-06T03:21:07.685Z,0.00
2023-02-06T03:22:08.545Z,0.00
2023-02-06T03:23:09.393Z,0.00
2023-02-06T03:24:10.247Z,0.00
2023-02-06T03:25:11.105Z,0.00
2023-02-06T03:26:12.002Z,0.00
2023-02-06T03:27:12.776Z,0.00
2023-02-06T03:28:13.758Z,0.00
2023-02-06T03:29:14.539Z,0.00
2023-02-06T03:30:15.405Z,0.00
2023-02-06T03:31:16.335Z,0.00
2023-02-06T03:32:17.129Z,0.00
2023-02-06T03:33:17.972Z,0.00
2023-02-06T03:34:18.826Z,0.00
2023-02-06T03:35:19.697Z,0.00
2023-02-06T03:36:20.542Z,0.00
2023-02-06T03:37:21.397Z,0.00
2023-02-06T03:38:22.253Z,0.00
2023-02-06T03:39:23.126Z,0.00
2023-02-06T03:40:23.964Z,0.00
2023-02-06T03:41:24.917Z,0.00
2023-02-06T03:42:25.710Z,0.00
2023-02-06T03:43:26.538Z,0.00
2023-02-06T03:44:27.390Z,0.00
2023-02-06T03:45:28.255Z,0.00
2023-02-06T03:46:29.106Z,0.00
2023-02-06T03:47:29.964Z,0.00
2023-02-06T03:48:30.813Z,0.00
2023-02-06T03:49:31.663Z,0.00
2023-02-06T03:50:32.532Z,0.00
2023-02-06T03:51:33.380Z,0.00
2023-02-06T03:52:34.233Z,0.00
2023-02-06T03:53:35.085Z,0.00
2023-02-06T03:54:35.935Z,0.00
2023-02-06T03:55:37.136Z,0.00
2023-02-06T03:56:37.646Z,0.00
2023-02-06T03:57:38.424Z,0.00
2023-02-06T03:58:39.275Z,0.00
2023-02-06T03:59:40.131Z,0.00
2023-02-06T04:00:41.008Z,0.00
2023-02-06T04:01:41.851Z,0.00
2023-02-06T04:02:42.775Z,0.00
2023-02-06T04:03:43.590Z,0.00
2023-02-06T04:04:44.432Z,0.00
2023-02-06T04:05:45.295Z,0.00
2023-02-06T04:06:46.153Z,0.00
2023-02-06T04:07:47.016Z,0.00
2023-02-06T04:08:47.853Z,0.00
2023-02-06T04:09:48.716Z,0.00
2023-02-06T04:10:49.767Z,0.00
2023-02-06T04:11:50.158Z,0.00
2023-02-06T04:12:50.993Z,0.00
2023-02-06T04:13:51.825Z,0.00
2023-02-06T04:14:52.684Z,0.00
2023-02-06T04:15:53.767Z,0.00
2023-02-06T04:16:54.119Z,0.00
2023-02-06T04:18:00.319Z,0.00
2023-02-06T04:18:56.746Z,0.00
2023-02-06T04:19:56.612Z,0.00
2023-02-06T04:20:57.754Z,0.00
2023-02-06T04:21:58.120Z,0.00
2023-02-06T04:22:58.964Z,0.00
2023-02-06T04:23:59.819Z,0.00
2023-02-06T04:25:00.667Z,0.00
2023-02-06T04:26:01.551Z,0.00
2023-02-06T04:27:02.437Z,0.00
2023-02-06T04:28:03.234Z,0.00
2023-02-06T04:29:04.078Z,0.00
2023-02-06T04:30:04.930Z,0.00
2023-02-06T04:31:05.914Z,0.00
2023-02-06T04:32:06.287Z,0.00
2023-02-06T04:33:07.147Z,0.00
2023-02-06T04:34:08.013Z,0.00
2023-02-06T04:35:08.866Z,0.00
2023-02-06T04:36:09.728Z,0.00
2023-02-06T04:37:10.580Z,0.00
2023-02-06T04:38:11.435Z,0.00
2023-02-06T04:39:12.288Z,0.00
2023-02-06T04:40:13.146Z,0.00
2023-02-06T04:41:14.251Z,0.00
2023-02-06T04:42:14.660Z,0.00
2023-02-06T04:43:15.430Z,0.00
2023-02-06T04:44:16.286Z,0.00
2023-02-06T04:45:17.141Z,0.00
2023-02-06T04:46:18.037Z,0.00
2023-02-06T04:47:18.917Z,0.00
2023-02-06T04:48:19.754Z,0.00
2023-02-06T04:49:20.638Z,0.00
2023-02-06T04:50:21.505Z,0.00
2023-02-06T04:51:22.369Z,0.00
2023-02-06T04:52:23.222Z,0.00
2023-02-06T04:53:24.073Z,0.00
2023-02-06T04:54:24.924Z,0.00
2023-02-06T04:55:25.778Z,0.00
2023-02-06T04:56:26.643Z,0.00
2023-02-06T04:57:27.539Z,0.00
2023-02-06T04:58:28.317Z,0.00
2023-02-06T04:59:29.184Z,0.00
2023-02-06T05:00:30.037Z,0.00
2023-02-06T05:01:30.980Z,0.00
2023-02-06T05:02:31.791Z,0.00
2023-02-06T05:03:32.639Z,0.00
2023-02-06T05:04:33.497Z,0.00
2023-02-06T05:05:34.809Z,0.00
2023-02-06T05:06:35.276Z,0.00
2023-02-06T05:07:36.126Z,0.00
2023-02-06T05:08:36.979Z,0.00
2023-02-06T05:09:37.829Z,0.00
2023-02-06T05:10:38.691Z,0.00
2023-02-06T05:11:39.550Z,0.00
2023-02-06T05:12:40.452Z,0.00
2023-02-06T05:13:41.228Z,0.00
2023-02-06T05:14:42.126Z,0.00
2023-02-06T05:15:42.992Z,0.00
2023-02-06T05:16:43.826Z,0.00
2023-02-06T05:17:44.705Z,0.00
2023-02-06T05:18:45.574Z,0.00
2023-02-06T05:19:46.425Z,0.00
2023-02-06T05:20:47.285Z,0.00
2023-02-06T05:21:48.145Z,0.00
2023-02-06T05:22:48.994Z,0.00
2023-02-06T05:23:49.851Z,0.00
2023-02-06T05:24:50.702Z,0.00
2023-02-06T05:25:51.557Z,0.00
2023-02-06T05:26:52.422Z,0.00
2023-02-06T05:27:53.414Z,0.00
2023-02-06T05:28:54.224Z,0.00
2023-02-06T05:29:55.081Z,0.00
2023-02-06T05:30:55.998Z,0.00
2023-02-06T05:31:57.262Z,0.00
2023-02-06T05:32:57.587Z,0.00
2023-02-06T05:33:58.477Z,0.00
2023-02-06T05:34:59.340Z,0.00
2023-02-06T05:36:00.414Z,0.00
2023-02-06T05:37:01.241Z,0.00
2023-02-06T05:38:01.624Z,0.00
2023-02-06T05:39:02.499Z,0.00
2023-02-06T05:40:03.352Z,0.00
2023-02-06T05:41:04.230Z,0.00
2023-02-06T05:42:05.096Z,0.00
2023-02-06T05:43:06.051Z,0.00
2023-02-06T05:44:06.854Z,0.00
2023-02-06T05:45:07.727Z,0.00
2023-02-06T05:46:08.657Z,0.00
2023-02-06T05:47:09.475Z,0.00
2023-02-06T05:48:10.331Z,0.00
2023-02-06T05:49:11.186Z,0.00
2023-02-06T05:50:12.043Z,0.00
2023-02-06T05:51:12.895Z,0.00
2023-02-06T05:52:13.758Z,0.00
2023-02-06T05:53:14.613Z,0.00
2023-02-06T05:54:15.466Z,0.00
2023-02-06T05:55:16.331Z,0.00
2023-02-06T05:56:17.200Z,0.00
2023-02-06T05:57:18.234Z,0.00
2023-02-06T05:58:18.644Z,0.00
2023-02-06T05:59:19.424Z,0.00
2023-02-06T06:00:20.273Z,0.00
2023-02-06T06:01:21.127Z,0.00
2023-02-06T06:02:21.985Z,0.00
2023-02-06T06:03:22.835Z,0.00
2023-02-06T06:04:23.724Z,0.00
2023-02-06T06:05:24.537Z,0.00
2023-02-06T06:06:25.389Z,0.00
2023-02-06T06:07:26.733Z,0.00
2023-02-06T06:08:27.093Z,0.00
2023-02-06T06:09:27.946Z,0.00
2023-02-06T06:10:28.798Z,0.00
2023-02-06T06:11:29.650Z,0.00
2023-02-06T06:12:30.736Z,0.00
2023-02-06T06:13:31.137Z,0.00
2023-02-06T06:14:31.914Z,0.00
2023-02-06T06:15:32.761Z,0.00
2023-02-06T06:16:33.637Z,0.00
2023-02-06T06:17:34.742Z,0.00
2023-02-06T06:18:35.098Z,0.00
2023-02-06T06:19:35.946Z,0.00
2023-02-06T06:20:36.798Z,0.00
2023-02-06T06:21:37.648Z,0.00
2023-02-06T06:22:38.734Z,0.00
2023-02-06T06:23:39.101Z,0.00
2023-02-06T06:24:39.965Z,0.00
2023-02-06T06:25:40.821Z,0.00
2023-02-06T06:26:41.672Z,0.00
2023-02-06T06:27:42.530Z,0.00
2023-02-06T06:28:43.424Z,0.00
2023-02-06T06:29:44.231Z,0.00
2023-02-06T06:30:45.154Z,0.00
2023-02-06T06:31:46.092Z,0.00
2023-02-06T06:32:47.228Z,0.00
2023-02-06T06:33:47.586Z,0.00
2023-02-06T06:34:48.468Z,0.00
2023-02-06T06:35:49.328Z,0.00
2023-02-06T06:36:50.179Z,0.00
2023-02-06T06:37:51.228Z,0.00
2023-02-06T06:38:52.083Z,0.00
2023-02-06T06:39:52.941Z,0.00
2023-02-06T06:40:53.804Z,0.00
2023-02-06T06:41:54.653Z,0.00
2023-02-06T06:42:55.725Z,0.00
2023-02-06T06:43:56.121Z,0.00
2023-02-06T06:44:56.910Z,0.00
2023-02-06T06:45:57.791Z,0.00
2023-02-06T06:46:58.611Z,0.00
2023-02-06T06:47:59.471Z,0.00
2023-02-06T06:49:00.322Z,0.00
2023-02-06T06:50:01.198Z,0.00
2023-02-06T06:51:02.044Z,0.00
2023-02-06T06:52:03.648Z,0.00
2023-02-06T06:53:03.729Z,0.00
2023-02-06T06:54:04.575Z,0.00
2023-02-06T06:55:05.430Z,0.00
2023-02-06T06:56:06.281Z,0.00
2023-02-06T06:57:07.138Z,0.00
2023-02-06T06:58:07.991Z,0.00
2023-02-06T06:59:08.894Z,0.00
2023-02-06T07:00:09.664Z,0.00
2023-02-06T07:01:10.590Z,5.62
2023-02-06T07:02:11.411Z,5.62
2023-02-06T07:03:12.304Z,5.62
2023-02-06T07:04:13.133Z,5.62
2023-02-06T07:05:13.989Z,5.62
2023-02-06T07:06:14.860Z,5.62
2023-02-06T07:07:15.761Z,5.62
2023-02-06T07:08:16.573Z,5.62
2023-02-06T07:09:17.426Z,5.62
2023-02-06T07:10:18.294Z,5.62
2023-02-06T07:11:19.146Z,5.62
2023-02-06T07:12:19.997Z,5.62
2023-02-06T07:13:20.859Z,11.25
2023-02-06T07:14:21.776Z,11.25
2023-02-06T07:15:22.563Z,11.25
2023-02-06T07:16:23.538Z,11.25
2023-02-06T07:17:24.316Z,16.88
2023-02-06T07:18:25.194Z,16.88
2023-02-06T07:19:26.050Z,16.88
2023-02-06T07:20:26.922Z,16.88
2023-02-06T07:21:27.780Z,16.88
2023-02-06T07:22:28.636Z,16.88
2023-02-06T07:23:29.735Z,22.50
2023-02-06T07:24:30.100Z,22.50
2023-02-06T07:25:30.949Z,22.50
2023-02-06T07:26:31.806Z,28.12
2023-02-06T07:27:32.671Z,28.12
2023-02-06T07:28:33.530Z,33.75
2023-02-06T07:29:34.419Z,33.75
2023-02-06T07:30:35.304Z,39.38
2023-02-06T07:31:36.150Z,39.38
2023-02-06T07:32:37.025Z,39.38
2023-02-06T07:33:37.842Z,45.00
2023-02-06T07:34:38.704Z,45.00
2023-02-06T07:35:39.548Z,45.00
2023-02-06T07:36:40.402Z,50.62
2023-02-06T07:37:41.253Z,50.62
2023-02-06T07:38:42.228Z,50.62
2023-02-06T07:39:43.086Z,50.62
2023-02-06T07:40:45.428Z,56.25
2023-02-06T07:41:44.590Z,50.62
2023-02-06T07:42:45.440Z,56.25
2023-02-06T07:43:46.729Z,56.25
2023-02-06T07:44:47.124Z,61.88
2023-02-06T07:45:47.983Z,61.88
2023-02-06T07:46:48.799Z,61.88
2023-02-06T07:47:49.648Z,61.88
2023-02-06T07:48:50.719Z,73.12
2023-02-06T07:49:51.118Z,73.12
2023-02-06T07:50:51.977Z,73.12
2023-02-06T07:51:52.858Z,73.12
2023-02-06T07:52:53.728Z,78.75
2023-02-06T07:53:54.728Z,84.38
2023-02-06T07:54:55.564Z,84.38
2023-02-06T07:55:56.418Z,84.38
2023-02-06T07:56:57.271Z,84.38
2023-02-06T07:57:58.140Z,84.38
2023-02-06T07:58:59.247Z,84.38
2023-02-06T07:59:59.603Z,84.38
2023-02-06T08:01:00.470Z,84.38
2023-02-06T08:02:01.271Z,84.38
2023-02-06T08:03:02.113Z,84.38
2023-02-06T08:04:03.004Z,84.38
2023-02-06T08:05:03.833Z,84.38
2023-02-06T08:06:04.680Z,84.38
2023-02-06T08:07:05.534Z,84.38
2023-02-06T08:08:06.391Z,90.00
2023-02-06T08:09:07.711Z,90.00
2023-02-06T08:10:08.086Z,90.00
2023-02-06T08:11:08.969Z,95.62
2023-02-06T08:12:11.801Z,90.00
2023-02-06T08:13:10.759Z,84.38
2023-02-06T08:14:11.717Z,73.12
2023-02-06T08:15:12.639Z,73.12
2023-02-06T08:16:13.482Z,78.75
2023-02-06T08:17:14.333Z,84.38
2023-02-06T08:18:15.206Z,90.00
2023-02-06T08:19:16.075Z,112.50
2023-02-06T08:20:16.954Z,118.12
2023-02-06T08:21:17.816Z,106.88
2023-02-06T08:22:18.656Z,84.38
2023-02-06T08:23:20.851Z,84.38
2023-02-06T08:24:20.718Z,84.38
2023-02-06T08:25:21.067Z,84.38
2023-02-06T08:26:21.920Z,90.00
2023-02-06T08:27:22.786Z,101.25
2023-02-06T08:28:23.720Z,95.62
2023-02-06T08:29:24.711Z,90.00
2023-02-06T08:30:25.271Z,84.38
2023-02-06T08:31:25.815Z,90.00
2023-02-06T08:32:26.140Z,90.00
2023-02-06T08:33:26.993Z,90.00
2023-02-06T08:34:27.868Z,90.00
2023-02-06T08:35:28.730Z,84.38
2023-02-06T08:36:29.573Z,90.00
2023-02-06T08:37:30.426Z,90.00
2023-02-06T08:38:31.295Z,95.62
2023-02-06T08:39:32.211Z,90.00
2023-02-06T08:40:33.064Z,84.38
2023-02-06T08:41:33.930Z,84.38
2023-02-06T08:42:34.776Z,78.75
2023-02-06T08:43:35.627Z,84.38
2023-02-06T08:44:36.707Z,84.38
2023-02-06T08:45:37.415Z,78.75
2023-02-06T08:46:37.811Z,78.75
2023-02-06T08:47:38.665Z,84.38
2023-02-06T08:48:39.523Z,90.00
2023-02-06T08:49:40.386Z,90.00
2023-02-06T08:50:41.237Z,95.62
2023-02-06T08:51:42.110Z,101.25
2023-02-06T08:52:42.951Z,101.25
2023-02-06T08:53:43.821Z,101.25
2023-02-06T08:54:44.708Z,106.88
2023-02-06T08:55:45.564Z,106.88
2023-02-06T08:56:46.439Z,112.50
2023-02-06T08:57:47.288Z,118.12
2023-02-06T08:58:48.137Z,106.88
2023-02-06T08:59:49.006Z,101.25
2023-02-06T09:00:49.903Z,106.88
2023-02-06T09:01:50.709Z,106.88
2023-02-06T09:02:51.632Z,101.25
2023-02-06T09:03:52.430Z,95.62
2023-02-06T09:04:53.703Z,112.50
2023-02-06T09:05:55.798Z,140.62
2023-02-06T09:06:54.861Z,118.12
2023-02-06T09:07:55.709Z,106.88
2023-02-06T09:08:56.557Z,112.50
2023-02-06T09:09:57.420Z,106.88
2023-02-06T09:10:58.300Z,106.88
2023-02-06T09:11:59.150Z,95.62
2023-02-06T09:13:00.009Z,95.62
2023-02-06T09:14:00.868Z,84.38
2023-02-06T09:15:02.205Z,78.75
2023-02-06T09:16:02.701Z,78.75
2023-02-06T09:17:03.509Z,78.75
2023-02-06T09:18:04.373Z,78.75
2023-02-06T09:19:05.233Z,78.75
2023-02-06T09:20:06.124Z,84.38
2023-02-06T09:21:06.983Z,95.62
2023-02-06T09:22:07.840Z,95.62
2023-02-06T09:23:08.705Z,84.38
2023-02-06T09:24:09.559Z,78.75
2023-02-06T09:25:10.705Z,84.38
2023-02-06T09:26:11.078Z,78.75
2023-02-06T09:27:11.931Z,90.00
2023-02-06T09:28:12.845Z,101.25
2023-02-06T09:29:13.665Z,106.88
2023-02-06T09:30:14.693Z,112.50
2023-02-06T09:31:15.200Z,112.50
2023-02-06T09:32:15.554Z,129.38
2023-02-06T09:33:16.425Z,123.75
2023-02-06T09:34:17.292Z,135.00
2023-02-06T09:35:18.191Z,157.50
2023-02-06T09:36:19.062Z,151.88
2023-02-06T09:37:19.913Z,140.62
2023-02-06T09:38:20.780Z,196.88
2023-02-06T09:39:21.633Z,219.38
2023-02-06T09:40:22.696Z,151.88
2023-02-06T09:41:23.048Z,135.00
2023-02-06T09:42:23.904Z,151.88
2023-02-06T09:43:24.772Z,163.12
2023-02-06T09:44:25.668Z,157.50
2023-02-06T09:45:26.694Z,163.12
2023-02-06T09:46:27.189Z,140.62
2023-02-06T09:47:28.013Z,135.00
2023-02-06T09:48:28.871Z,135.00
2023-02-06T09:49:29.686Z,146.25
2023-02-06T09:50:30.546Z,151.88
2023-02-06T09:51:31.401Z,151.88
2023-02-06T09:52:32.250Z,146.25
2023-02-06T09:53:33.101Z,135.00
2023-02-06T09:54:33.967Z,146.25
2023-02-06T09:55:35.669Z,151.88
2023-02-06T09:56:35.651Z,146.25
2023-02-06T09:57:36.502Z,163.12
2023-02-06T09:58:37.370Z,168.75
2023-02-06T09:59:38.228Z,185.62
2023-02-06T10:00:39.192Z,185.62
2023-02-06T10:01:40.150Z,191.25
2023-02-06T10:02:40.978Z,168.75
2023-02-06T10:03:41.828Z,146.25
2023-02-06T10:04:42.686Z,135.00
2023-02-06T10:05:43.684Z,146.25
2023-02-06T10:06:44.052Z,163.12
2023-02-06T10:07:44.915Z,163.12
2023-02-06T10:08:45.747Z,163.12
2023-02-06T10:09:46.598Z,163.12
2023-02-06T10:10:47.466Z,151.88
2023-02-06T10:11:48.381Z,123.75
2023-02-06T10:12:49.240Z,123.75
2023-02-06T10:13:50.114Z,129.38
2023-02-06T10:14:50.945Z,157.50
2023-02-06T10:15:52.231Z,151.88
2023-02-06T10:16:52.615Z,163.12
2023-02-06T10:17:53.458Z,241.88
2023-02-06T10:18:54.338Z,343.12
2023-02-06T10:19:55.201Z,388.12
2023-02-06T10:20:56.195Z,472.50
2023-02-06T10:21:56.546Z,382.50
2023-02-06T10:22:57.431Z,337.50
2023-02-06T10:23:58.272Z,371.25
2023-02-06T10:24:59.127Z,427.50
2023-02-06T10:25:59.980Z,388.12
2023-02-06T10:27:00.835Z,331.88
2023-02-06T10:28:01.721Z,315.00
2023-02-06T10:29:02.537Z,292.50
2023-02-06T10:30:03.388Z,331.88
2023-02-06T10:31:04.758Z,495.00
2023-02-06T10:32:05.110Z,450.00
2023-02-06T10:33:09.733Z,506.25
2023-02-06T10:34:07.640Z,466.88
2023-02-06T10:35:07.482Z,478.12
2023-02-06T10:36:08.707Z,489.38
2023-02-06T10:37:09.041Z,562.50
2023-02-06T10:38:09.898Z,438.75
2023-02-06T10:39:10.749Z,472.50
2023-02-06T10:40:11.621Z,545.62
2023-02-06T10:41:12.689Z,573.75
2023-02-06T10:42:13.038Z,652.50
2023-02-06T10:43:13.952Z,658.12
2023-02-06T10:44:14.743Z,680.62
2023-02-06T10:45:20.307Z,714.38
2023-02-06T10:46:16.297Z,826.88
2023-02-06T10:47:17.184Z,871.88
2023-02-06T10:48:17.974Z,725.62
2023-02-06T10:49:18.861Z,708.75
2023-02-06T10:50:19.754Z,545.62
2023-02-06T10:51:20.692Z,461.25
2023-02-06T10:52:21.537Z,478.12
2023-02-06T10:53:22.396Z,590.62
2023-02-06T10:54:23.262Z,618.75
2023-02-06T10:55:24.108Z,765.00
2023-02-06T10:56:24.987Z,523.12
2023-02-06T10:57:25.819Z,534.38
2023-02-06T10:58:26.686Z,478.12
2023-02-06T10:59:27.526Z,489.38
2023-02-06T11:00:28.613Z,714.38
2023-02-06T11:01:29.253Z,450.00
2023-02-06T11:02:29.780Z,433.12
2023-02-06T11:03:30.091Z,478.12
2023-02-06T11:04:30.945Z,635.62
2023-02-06T11:05:31.802Z,562.50
2023-02-06T11:06:32.682Z,540.00
2023-02-06T11:07:33.551Z,669.38
2023-02-06T11:08:34.086Z,573.75
2023-02-06T11:09:34.951Z,562.50
2023-02-06T11:10:36.157Z,483.75
2023-02-06T11:11:36.685Z,461.25
2023-02-06T11:12:37.541Z,444.38
2023-02-06T11:13:38.417Z,421.88
2023-02-06T11:14:39.286Z,461.25
2023-02-06T11:15:40.156Z,511.88
2023-02-06T11:16:41.287Z,624.38
2023-02-06T11:17:41.670Z,405.00
2023-02-06T11:18:42.471Z,410.62
2023-02-06T11:19:43.321Z,382.50
2023-02-06T11:20:44.192Z,399.38
2023-02-06T11:21:45.077Z,388.12
2023-02-06T11:22:52.720Z,331.88
2023-02-06T11:23:47.733Z,309.38
2023-02-06T11:24:47.590Z,360.00
2023-02-06T11:25:48.458Z,433.12
2023-02-06T11:26:49.683Z,562.50
2023-02-06T11:27:50.083Z,686.25
2023-02-06T11:28:50.902Z,393.75
2023-02-06T11:29:52.286Z,331.88
2023-02-06T11:30:52.742Z,298.12
2023-02-06T11:31:53.809Z,286.88
2023-02-06T11:33:04.073Z,292.50
2023-02-06T11:33:55.955Z,309.38
2023-02-06T11:34:55.812Z,286.88
2023-02-06T11:35:56.862Z,258.75
2023-02-06T11:36:57.681Z,247.50
2023-02-06T11:37:58.050Z,253.12
2023-02-06T11:38:58.906Z,264.38
2023-02-06T11:39:59.756Z,275.62
2023-02-06T11:41:00.619Z,281.25
2023-02-06T11:42:01.684Z,270.00
2023-02-06T11:43:02.038Z,253.12
2023-02-06T11:44:02.893Z,230.62
2023-02-06T11:45:03.750Z,213.75
2023-02-06T11:46:04.701Z,202.50
2023-02-06T11:47:05.678Z,208.12
2023-02-06T11:48:06.075Z,219.38
2023-02-06T11:49:06.858Z,225.00
2023-02-06T11:50:07.704Z,213.75
2023-02-06T11:51:08.577Z,213.75
2023-02-06T11:52:09.678Z,219.38
2023-02-06T11:53:10.033Z,213.75
2023-02-06T11:54:10.881Z,191.25
2023-02-06T11:55:11.735Z,163.12
2023-02-06T11:56:12.587Z,146.25
2023-02-06T11:57:13.680Z,140.62
2023-02-06T11:58:14.127Z,129.38
2023-02-06T11:59:14.923Z,118.12
2023-02-06T12:00:15.788Z,123.75
2023-02-06T12:01:16.630Z,123.75
2023-02-06T12:02:17.740Z,123.75
2023-02-06T12:03:18.223Z,129.38
2023-02-06T12:04:18.533Z,140.62
2023-02-06T12:05:19.399Z,140.62
2023-02-06T12:06:20.263Z,146.25
2023-02-06T12:07:21.177Z,146.25
2023-02-06T12:08:22.035Z,140.62
2023-02-06T12:09:22.908Z,140.62
2023-02-06T12:10:23.770Z,135.00
2023-02-06T12:11:24.636Z,129.38
2023-02-06T12:12:25.677Z,123.75
2023-02-06T12:13:26.044Z,140.62
2023-02-06T12:14:26.933Z,157.50
2023-02-06T12:15:45.611Z,163.12
2023-02-06T12:16:29.562Z,185.62
2023-02-06T12:17:29.404Z,202.50
2023-02-06T12:18:30.330Z,180.00
2023-02-06T12:19:31.136Z,163.12
2023-02-06T12:20:32.019Z,174.38
2023-02-06T12:21:32.870Z,168.75
2023-02-06T12:22:34.190Z,151.88
2023-02-06T12:23:34.555Z,146.25
2023-02-06T12:24:35.422Z,151.88
2023-02-06T12:25:36.652Z,157.50
2023-02-06T12:26:37.107Z,151.88
2023-02-06T12:27:39.369Z,146.25
2023-02-06T12:28:38.926Z,140.62
2023-02-06T12:29:39.779Z,135.00
2023-02-06T12:30:40.728Z,135.00
2023-02-06T12:31:41.712Z,129.38
2023-02-06T12:32:42.176Z,118.12
2023-02-06T12:33:43.079Z,118.12
2023-02-06T12:34:43.882Z,129.38
2023-02-06T12:35:44.732Z,140.62
2023-02-06T12:36:45.584Z,146.25
2023-02-06T12:37:46.678Z,140.62
2023-02-06T12:38:47.051Z,140.62
2023-02-06T12:39:47.896Z,140.62
2023-02-06T12:40:48.804Z,135.00
2023-02-06T12:41:49.667Z,129.38
2023-02-06T12:42:50.667Z,129.38
2023-02-06T12:43:51.029Z,129.38
2023-02-06T12:44:51.876Z,123.75
2023-02-06T12:45:52.782Z,123.75
2023-02-06T12:46:53.589Z,135.00
2023-02-06T12:47:54.670Z,140.62
2023-02-06T12:48:55.069Z,140.62
2023-02-06T12:49:55.846Z,146.25
2023-02-06T12:50:56.698Z,151.88
2023-02-06T12:51:57.559Z,174.38
2023-02-06T12:52:58.669Z,191.25
2023-02-06T12:53:59.022Z,191.25
2023-02-06T12:54:59.890Z,202.50
2023-02-06T12:56:01.034Z,202.50
2023-02-06T12:57:01.408Z,196.88
2023-02-06T12:58:02.664Z,168.75
2023-02-06T12:59:03.028Z,146.25
2023-02-06T13:00:03.904Z,129.38
2023-02-06T13:01:05.603Z,129.38
2023-02-06T13:02:05.548Z,146.25
2023-02-06T13:03:06.731Z,157.50
2023-02-06T13:04:07.180Z,163.12
2023-02-06T13:05:07.960Z,180.00
2023-02-06T13:06:08.862Z,230.62
2023-02-06T13:07:09.729Z,270.00
2023-02-06T13:08:10.617Z,292.50
2023-02-06T13:09:11.442Z,376.88